Ely, Nevada Weather observations

Data are for observation ending at time listed.
 Day   Time    Ave.   Ave.  Ave.  Vector   Max.   Stn.    Total    Solar   Ave.  
  of    of     Air    Rel.  Wind   Wind    Wind   Baro.  Precip.   Rad.    Soil  
Year   Day     Temp.  Hum.  Speed  Dir.    Gust   Pres.                    Temp. 
2016   (PST)    F      %     mph   deg.    mph     mb.     in.     W/m2     F   
------------------------------------------------------------------------------
 270    0:00   41.0    61    9.4   155     11.9   820.7    0.00       1    50.3
 270    0:10   40.7    62    8.8   145     11.5   820.6    0.00       1    50.1
 270    0:20   40.4    63    8.6   153     11.1   820.6    0.00       0    49.9
 270    0:30   40.6    62    8.6   159     12.3   820.6    0.00       0    49.7
 270    0:40   41.3    60   10.0   157     12.7   820.6    0.00       0    49.5
 270    0:50   41.1    60    9.0   151     11.2   820.5    0.00       1    49.3
 270    1:00   40.4    62    9.1   150     11.9   820.6    0.00       1    49.1
 270    1:10   39.9    63   10.1   152     13.3   820.6    0.00       1    49.0
 270    1:20   39.3    65    7.7   144     11.3   820.6    0.00       1    48.8
 270    1:30   39.4    66    7.0   141      9.2   820.5    0.00       1    48.7
 270    1:40   39.1    67    8.1   149     11.7   820.5    0.00       0    48.5
 270    1:50   39.0    69    8.1   141     10.7   820.5    0.00       0    48.4
 270    2:00   39.3    67    9.3   146     13.2   820.4    0.00       0    48.3
 270    2:10   38.8    67   10.8   149     12.8   820.3    0.00       1    48.1
 270    2:20   38.1    69   10.5   150     13.5   820.3    0.00       0    47.9
 270    2:30   38.2    69   10.5   158     15.1   820.4    0.00       0    47.8
 270    2:40   37.8    69   10.3   149     15.3   820.4    0.00       1    47.6
 270    2:50   37.9    68   10.8   157     13.4   820.3    0.00       0    47.4
 270    3:00   37.3    69    8.8   151     12.7   820.3    0.00       0    47.2
 270    3:10   37.7    68   10.5   157     13.9   820.2    0.00       0    47.1
 270    3:20   37.8    68   10.0   151     12.5   820.3    0.00       0    46.9
 270    3:30   37.1    70    8.4   153     10.4   820.2    0.00       0    46.8
 270    3:40   36.6    70    6.6   154      9.3   820.3    0.00       0    46.7
 270    3:50   36.4    71    6.4   162      9.8   820.3    0.00       0    46.6
 270    4:00   37.5    68    9.1   155     11.2   820.3    0.00       0    46.5
 270    4:10   38.1    67    6.3   151     10.4   820.3    0.00       0    46.4
 270    4:20   36.0    73    5.2   147      8.4   820.3    0.00       0    46.3
 270    4:30   34.7    76    7.5   148     11.2   820.4    0.00       0    46.2
 270    4:40   34.2    77    9.3   148     12.4   820.4    0.00       0    46.0
 270    4:50   34.2    77    8.1   147     10.0   820.5    0.00       1    45.8
 270    5:00   33.7    78    7.9   153      9.8   820.6    0.00       0    45.7
 270    5:10   33.4    79    9.5   152     12.3   820.7    0.00       0    45.5
 270    5:20   33.7    79    9.4   153     12.3   820.7    0.00       1    45.4
 270    5:30   33.5    79    9.5   163     12.4   820.8    0.00       7    45.2
 270    5:40   32.9    80    8.1   165     11.2   820.9    0.00       7    45.1
 270    5:50   33.3    80    6.8   160      9.7   821.0    0.00       7    44.9
 270    6:00   33.3    80    8.9   157     12.1   821.1    0.00      10    44.8
 270    6:10   33.3    80    7.0   160     11.0   821.1    0.00      20    44.6
 270    6:20   34.0    78   10.1   158     13.0   821.1    0.00      20    44.5
 270    6:30   36.2    72    7.1   153      9.5   821.1    0.00     122    44.4
 270    6:40   37.5    70    6.8   161     11.0   821.1    0.00     201    44.5
 270    6:50   39.0    66    7.7   159     11.5   821.1    0.00     236    44.5
 270    7:00   41.6    62    6.0   143      7.8   821.1    0.00     272    44.5
 270    7:10   43.6    58    7.5   144     10.7   821.0    0.00     309    44.7
 270    7:20   45.0    56    8.6   145     10.9   821.1    0.00     344    44.9
 270    7:30   46.6    54    6.6   152      9.1   821.0    0.00     379    45.3
 270    7:40   48.5    52    5.7   160      8.4   821.0    0.00     413    45.7
 270    7:50   50.3    47    6.5   156      8.6   821.0    0.00     445    46.1
 270    8:00   51.9    45    5.3   159      8.2   820.9    0.00     478    46.5
 270    8:10   53.6    40    4.0   170      7.5   820.9    0.00     511    46.9
 270    8:20   54.8    38    2.4   195      5.2   820.9    0.00     543    47.4
 270    8:30   57.3    35    0.7   213      2.7   821.0    0.00     573    47.8
 270    8:40   59.0    33    0.9    78      3.1   821.0    0.00     603    48.3
 270    8:50   59.3    33    0.6   315      2.7   820.9    0.00     630    48.7
 270    9:00   59.9    32    0.9   118      2.7   820.9    0.00     657    49.1
 270    9:10   61.1    31    2.1   351      5.1   820.9    0.00     683    49.5
 270    9:20   60.7    32    4.1   336      9.0   820.7    0.00     708    49.9
 270    9:30   60.0    33    4.7   338     11.3   820.6    0.00     732    50.2
 270    9:40   60.5    33    5.3   351      8.7   820.5    0.00     753    50.6
 270    9:50   60.9    32    5.3   340      8.6   820.4    0.00     773    51.0
 270   10:00   61.6    31    5.7   338      9.1   820.3    0.00     792    51.4
 270   10:10   62.0    31    3.1   340      7.6   820.2    0.00     809    51.9
 270   10:20   62.8    30    4.0   343      8.3   820.0    0.00     825    52.3
 270   10:30   63.0    29    3.8   348      6.9   819.8    0.00     837    52.8
 270   10:40   63.8    28    3.1     1      8.1   819.7    0.00     847    53.3
 270   10:50   64.3    28    4.3   346      7.4   819.6    0.00     858    53.8
 270   11:00   65.3    27    5.1   332      8.7   819.5    0.00     861    54.3
 270   11:10   65.6    27    4.6   358      8.7   819.3    0.00     870    54.8
 270   11:20   65.7    26    4.7   324      8.8   819.3    0.00     874    55.4
 270   11:30   66.7    26    4.7   334     10.1   819.1    0.00     874    56.0
 270   11:40   66.8    26    4.3   341     10.4   819.0    0.00     874    56.5
 270   11:50   67.6    25    4.8   349      8.8   818.8    0.00     874    57.0
 270   12:00   68.0    24    2.0     2      4.7   818.6    0.00     871    57.5
 270   12:10   69.1    24    4.4   330      7.2   818.4    0.00     862    58.0
 270   12:20   69.4    23    5.8     3      9.6   818.3    0.00     859    58.3
 270   12:30   70.2    23    3.8   334      7.7   818.1    0.00     848    58.5
 270   12:40   70.9    22    7.1   337     11.1   818.0    0.00     836    58.8
 270   12:50   71.1    22    5.7   339      9.7   817.9    0.00     822    59.0
 270   13:00   71.2    23    8.4   337     12.3   817.7    0.00     806    59.5
 270   13:10   71.0    22    6.2   332     11.5   817.6    0.00     791    60.1
 270   13:20   71.5    22    6.6   333     11.2   817.5    0.00     776    60.7
 270   13:30   72.2    21    6.5   341     11.1   817.4    0.00     757    61.2
 270   13:40   72.6    20    5.9   337     10.9   817.2    0.00     734    61.6
 270   13:50   73.2    20    5.9   341      9.6   817.2    0.00     711    62.0
 270   14:00   73.4    20    6.7   335      9.9   817.1    0.00     686    62.2
 270   14:10   74.0    20    7.5   338     12.4   816.9    0.00     661    62.5
 270   14:20   74.1    20    5.8   333     12.6   816.8    0.00     631    62.7
 270   14:30   74.1    20    7.4   326     11.5   816.7    0.00     603    63.0
 270   14:40   74.0    20    6.7   342     12.3   816.6    0.00     572    63.0
 270   14:50   74.5    20    5.3   328     10.2   816.5    0.00     541    63.0
 270   15:00   74.8    20    5.1   344     10.0   816.4    0.00     510    63.0
 270   15:10   74.8    19    5.8   345     10.3   816.3    0.00     477    63.0
 270   15:20   74.7    19    5.1   348     10.3   816.2    0.00     442    62.9
 270   15:30   74.6    20    8.0   349     12.6   816.2    0.00     407    62.9
 270   15:40   74.6    19    8.5   349     11.8   816.0    0.00     373    62.8
 270   15:50   74.4    19    9.2   346     13.6   816.0    0.00     336    62.6
 270   16:00   74.0    20    8.5   335     12.4   815.9    0.00     300    62.5
 270   16:10   73.9    20    9.8   334     13.4   815.8    0.00     263    62.4
 270   16:20   73.6    20    9.8   334     13.0   815.8    0.00     228    62.3
 270   16:30   73.5    20    9.4   341     13.1   815.7    0.00     192    62.2
 270   16:40   73.2    21    8.9   340     12.3   815.7    0.00     159    62.1
 270   16:50   72.8    21    8.8   339     12.9   815.6    0.00     123    61.9
 270   17:00   72.1    22    9.2   338     12.3   815.6    0.00      83    61.8
 270   17:10   71.3    23    7.6   340     11.2   815.6    0.00      45    61.7
 270   17:20   69.6    26    7.2   341     10.0   815.7    0.00       7    61.5
 270   17:30   68.1    28    6.5   350      9.3   815.7    0.00       7    61.3
 270   17:40   66.3    30    6.9     6      8.9   815.7    0.00       7    61.0
 270   17:50   64.9    32    7.2     4      9.5   815.7    0.00       4    60.8
 270   18:00   63.7    35    8.4     9     12.5   815.8    0.00       2    60.5
 270   18:10   63.8    35    9.8     6     12.7   815.8    0.00       0    60.2
 270   18:20   63.9    36    9.5     6     12.3   815.8    0.00       0    60.0
 270   18:30   63.3    37    8.9     9     12.1   815.8    0.00       1    59.8
 270   18:40   62.5    38    8.6     7     11.5   815.9    0.00       1    59.6
 270   18:50   62.2    39    8.5     9     11.2   816.0    0.00       1    59.4
 270   19:00   61.8    40    8.4    10     11.9   816.0    0.00       0    59.3
 270   19:10   61.6    40    8.7     8     11.7   816.1    0.00       1    59.1
 270   19:20   61.3    40    8.0     6     10.7   816.3    0.00       0    58.9
 270   19:30   59.8    43    3.5    87      7.9   816.4    0.00       0    58.8
 270   19:40   58.1    46    1.6   164      3.0   816.4    0.00       1    58.8
 270   19:50   58.8    45    1.8   104      3.4   816.5    0.00       0    58.9
 270   20:00   58.0    46    4.1   139      6.3   816.6    0.00       0    58.8
 270   20:10   56.1    49    3.5   124      4.8   816.6    0.00       1    58.6
 270   20:20   54.3    52    4.4   132      9.2   816.6    0.00       1    58.4
 270   20:30   52.4    54    5.4   134      7.7   816.7    0.00       1    58.2
 270   20:40   51.7    54    6.3   128      9.0   816.7    0.00       1    57.9
 270   20:50   50.8    55    7.1   138      9.6   816.7    0.00       1    57.6
 270   21:00   50.4    55    6.9   139      9.5   816.7    0.00       1    57.3
 270   21:10   51.2    53    8.5   136     10.0   816.7    0.00       1    57.0
 270   21:20   51.1    53    7.5   143      8.6   816.8    0.00       1    56.7
 270   21:30   50.2    55    5.6   143      7.1   816.9    0.00       1    56.6
 270   21:40   49.2    58    3.4   118      5.6   817.0    0.00       0    56.4
 270   21:50   49.4    56    7.5   150     11.2   817.0    0.00       0    56.3
 270   22:00   49.4    55   10.1   159     12.6   817.0    0.00       0    56.0
 270   22:10   49.0    56    8.0   148     10.4   817.1    0.00       0    55.8
 270   22:20   47.2    60    8.0   158     10.4   817.1    0.00       0    55.5
 270   22:30   46.6    62    6.6   159      8.3   817.1    0.00       0    55.3
 270   22:40   46.4    62    6.5   153      8.7   817.1    0.00       1    55.1
 270   22:50   46.0    62    6.4   154      8.2   817.0    0.00       1    54.9
 270   23:00   46.2    61    6.7   155      8.3   817.0    0.00       1    54.8

Return to Ely, Nevada graphs page.


Western Regional Climate Center,wrcc@dri.edu